createdAt,value
2018-09-27T00:00:26.459Z,66.66
2018-09-27T00:02:55.477Z,66.41
2018-09-27T00:05:23.979Z,66.90
2018-09-27T00:07:52.520Z,67.10
2018-09-27T00:10:21.048Z,67.38
2018-09-27T00:12:49.561Z,66.69
2018-09-27T00:15:18.061Z,67.64
2018-09-27T00:17:46.566Z,67.05
2018-09-27T00:20:15.070Z,68.32
2018-09-27T00:22:43.700Z,67.96
2018-09-27T00:25:12.185Z,68.41
2018-09-27T00:27:40.700Z,67.92
2018-09-27T00:30:10.340Z,68.77
2018-09-27T00:32:38.948Z,69.07
2018-09-27T00:35:07.586Z,69.39
2018-09-27T00:37:36.485Z,68.54
2018-09-27T00:40:05.751Z,68.60
2018-09-27T00:42:34.313Z,68.47
2018-09-27T00:45:04.864Z,69.08
2018-09-27T00:47:33.348Z,69.09
2018-09-27T00:50:03.100Z,69.07
2018-09-27T00:52:31.618Z,70.40
2018-09-27T00:55:00.171Z,69.89
2018-09-27T00:57:33.207Z,70.12
2018-09-27T01:00:03.000Z,69.39
2018-09-27T01:02:31.485Z,68.99
2018-09-27T01:04:59.980Z,68.97
2018-09-27T01:07:28.893Z,70.70
2018-09-27T01:09:57.789Z,71.32
2018-09-27T01:12:26.268Z,70.15
2018-09-27T01:14:54.960Z,71.09
2018-09-27T01:17:23.436Z,69.82
2018-09-27T01:19:52.056Z,68.96
2018-09-27T01:22:20.646Z,69.61
2018-09-27T01:24:49.163Z,69.98
2018-09-27T01:27:17.991Z,70.53
2018-09-27T01:29:46.496Z,69.63
2018-09-27T01:32:15.009Z,69.09
2018-09-27T01:34:43.567Z,69.98
2018-09-27T01:37:12.097Z,70.46
2018-09-27T01:39:40.773Z,72.11
2018-09-27T01:42:09.316Z,71.04
2018-09-27T01:44:37.886Z,72.00
2018-09-27T01:47:06.451Z,71.29
2018-09-27T01:49:34.964Z,71.73
2018-09-27T01:52:06.562Z,71.35
2018-09-27T01:54:35.388Z,71.91
2018-09-27T01:57:05.718Z,72.40
2018-09-27T01:59:34.272Z,72.81
2018-09-27T02:02:05.732Z,71.91
2018-09-27T02:04:34.380Z,72.29
2018-09-27T02:07:06.193Z,71.74
2018-09-27T02:09:34.730Z,72.03
2018-09-27T02:12:04.561Z,71.43
2018-09-27T02:14:33.040Z,71.18
2018-09-27T02:17:02.849Z,71.15
2018-09-27T02:19:31.427Z,71.64
2018-09-27T02:21:59.927Z,72.47
2018-09-27T02:24:28.426Z,73.52
2018-09-27T02:26:56.905Z,72.37
2018-09-27T02:29:25.454Z,72.58
2018-09-27T02:31:53.966Z,71.88
2018-09-27T02:34:22.493Z,71.83
2018-09-27T02:36:50.983Z,72.80
2018-09-27T02:39:19.689Z,72.76
2018-09-27T02:41:48.188Z,71.64
2018-09-27T02:44:16.817Z,73.00
2018-09-27T02:46:45.349Z,72.17
2018-09-27T02:49:14.889Z,72.14
2018-09-27T02:51:43.482Z,71.77
2018-09-27T02:54:12.006Z,72.29
2018-09-27T02:56:40.525Z,72.85
2018-09-27T02:59:09.137Z,73.18
2018-09-27T03:01:37.877Z,72.97
2018-09-27T03:04:06.441Z,72.89
2018-09-27T03:06:34.945Z,72.24
2018-09-27T03:09:09.526Z,71.21
2018-09-27T03:11:38.046Z,72.18
2018-09-27T03:14:06.598Z,71.75
2018-09-27T03:16:35.215Z,73.22
2018-09-27T03:19:04.773Z,72.36
2018-09-27T03:21:33.293Z,72.36
2018-09-27T03:24:04.999Z,71.76
2018-09-27T03:26:33.531Z,71.74
2018-09-27T03:29:06.773Z,72.01
2018-09-27T03:31:35.410Z,73.33
2018-09-27T03:34:05.284Z,72.04
2018-09-27T03:36:33.957Z,71.54
2018-09-27T03:39:05.038Z,71.48
2018-09-27T03:41:33.556Z,71.15
2018-09-27T03:44:03.770Z,69.97
2018-09-27T03:46:32.314Z,71.41
2018-09-27T03:49:03.327Z,70.50
2018-09-27T03:51:31.866Z,70.51
2018-09-27T03:54:00.440Z,70.02
2018-09-27T03:56:30.837Z,70.87
2018-09-27T03:59:03.107Z,70.03
2018-09-27T04:01:31.767Z,69.93
2018-09-27T04:04:00.284Z,70.26
2018-09-27T04:06:28.791Z,69.52
2018-09-27T04:08:57.299Z,70.03
2018-09-27T04:11:25.833Z,69.50
2018-09-27T04:13:54.851Z,69.76
2018-09-27T04:16:23.357Z,68.51
2018-09-27T04:18:51.857Z,68.63
2018-09-27T04:21:20.381Z,67.72
2018-09-27T04:23:48.884Z,67.71
2018-09-27T04:26:17.413Z,67.33
2018-09-27T04:28:45.972Z,67.70
2018-09-27T04:31:14.473Z,67.37
2018-09-27T04:33:43.111Z,67.95
2018-09-27T04:36:11.633Z,67.93
2018-09-27T04:38:40.187Z,67.57
2018-09-27T04:41:08.698Z,69.57
2018-09-27T04:43:37.209Z,68.53
2018-09-27T04:46:06.808Z,68.43
2018-09-27T04:48:35.326Z,68.19
2018-09-27T04:51:05.414Z,68.65
2018-09-27T04:53:33.934Z,68.70
2018-09-27T04:56:04.067Z,67.88
2018-09-27T04:58:32.613Z,68.45
2018-09-27T05:01:03.296Z,69.22
2018-09-27T05:03:31.904Z,67.80
2018-09-27T05:06:00.579Z,67.73
2018-09-27T05:08:29.228Z,67.54
2018-09-27T05:10:57.756Z,67.55
2018-09-27T05:13:26.291Z,67.23
2018-09-27T05:15:54.836Z,67.99
2018-09-27T05:18:23.987Z,68.01
2018-09-27T05:20:58.269Z,67.67
2018-09-27T05:23:26.797Z,68.76
2018-09-27T05:25:55.288Z,66.85
2018-09-27T05:28:23.799Z,66.50
2018-09-27T05:30:52.547Z,66.50
2018-09-27T05:33:21.046Z,66.32
2018-09-27T05:35:49.622Z,65.84
2018-09-27T05:38:18.169Z,67.35
2018-09-27T05:40:46.855Z,66.86
2018-09-27T05:43:15.668Z,66.28
2018-09-27T05:45:44.267Z,65.86
2018-09-27T05:48:12.809Z,67.23
2018-09-27T05:50:41.352Z,66.73
2018-09-27T05:53:09.901Z,65.16
2018-09-27T05:55:38.768Z,64.65
2018-09-27T05:58:07.327Z,66.06
2018-09-27T06:00:36.265Z,65.73
2018-09-27T06:03:05.568Z,65.33
2018-09-27T06:05:34.053Z,65.92
2018-09-27T06:08:03.781Z,64.71
2018-09-27T06:10:32.316Z,65.06
2018-09-27T06:13:02.879Z,65.14
2018-09-27T06:15:31.373Z,64.95
2018-09-27T06:18:00.189Z,64.94
2018-09-27T06:20:28.733Z,65.34
2018-09-27T06:22:57.291Z,65.36
2018-09-27T06:25:25.820Z,64.15
2018-09-27T06:27:54.382Z,64.22
2018-09-27T06:30:22.875Z,64.97
2018-09-27T06:32:51.576Z,64.18
2018-09-27T06:35:20.121Z,64.15
2018-09-27T06:37:48.621Z,64.31
2018-09-27T06:40:17.632Z,64.44
2018-09-27T06:42:46.189Z,64.95
2018-09-27T06:45:14.785Z,64.37
2018-09-27T06:47:43.293Z,65.58
2018-09-27T06:50:11.817Z,64.60
2018-09-27T06:52:40.303Z,62.59
2018-09-27T06:55:09.063Z,62.64
2018-09-27T06:57:37.654Z,63.32
2018-09-27T07:00:06.235Z,63.58
2018-09-27T07:02:34.833Z,62.45
2018-09-27T07:05:04.891Z,61.12
2018-09-27T07:07:33.440Z,61.78
2018-09-27T07:10:03.996Z,60.88
2018-09-27T07:12:32.698Z,60.39
2018-09-27T07:15:03.473Z,60.00
2018-09-27T07:17:32.239Z,61.12
2018-09-27T07:20:00.741Z,59.87
2018-09-27T07:22:29.306Z,59.81
2018-09-27T07:24:57.855Z,60.68
2018-09-27T07:27:26.358Z,59.99
2018-09-27T07:29:54.898Z,58.87
2018-09-27T07:32:23.443Z,60.21
2018-09-27T07:34:51.956Z,59.36
2018-09-27T07:37:20.593Z,58.12
2018-09-27T07:39:49.144Z,59.94
2018-09-27T07:42:17.669Z,57.87
2018-09-27T07:44:46.180Z,57.53
2018-09-27T07:47:14.701Z,56.95
2018-09-27T07:49:43.189Z,56.32
2018-09-27T07:52:12.053Z,57.88
2018-09-27T07:54:40.930Z,56.70
2018-09-27T07:57:09.626Z,55.95
2018-09-27T07:59:39.081Z,56.53
2018-09-27T08:02:07.634Z,55.80
2018-09-27T08:04:43.013Z,55.53
2018-09-27T08:07:11.598Z,56.13
2018-09-27T08:09:40.211Z,56.07
2018-09-27T08:12:08.716Z,56.49
2018-09-27T08:14:37.244Z,56.01
2018-09-27T08:17:06.065Z,57.57
2018-09-27T08:19:34.577Z,55.02
2018-09-27T08:22:04.826Z,54.79
2018-09-27T08:24:33.345Z,55.25
2018-09-27T08:27:02.737Z,53.98
2018-09-27T08:29:31.390Z,53.09
2018-09-27T08:32:01.220Z,53.00
2018-09-27T08:34:29.848Z,53.22
2018-09-27T08:36:58.373Z,53.24
2018-09-27T08:39:26.985Z,52.57
2018-09-27T08:41:55.473Z,52.63
2018-09-27T08:44:24.138Z,52.73
2018-09-27T08:46:52.672Z,50.63
2018-09-27T08:49:21.337Z,51.37
2018-09-27T08:51:49.875Z,50.65
2018-09-27T08:54:18.386Z,52.32
2018-09-27T08:56:46.951Z,52.22
2018-09-27T08:59:15.719Z,53.04
2018-09-27T09:01:44.349Z,52.54
2018-09-27T09:04:12.970Z,52.90
2018-09-27T09:06:41.467Z,53.18
2018-09-27T09:09:11.822Z,53.41
2018-09-27T09:11:40.890Z,52.20
2018-09-27T09:14:10.680Z,52.03
2018-09-27T09:16:39.665Z,52.10
2018-09-27T09:19:09.648Z,51.56
2018-09-27T09:21:38.858Z,51.42
2018-09-27T09:24:07.341Z,52.75
2018-09-27T09:26:35.891Z,50.94
2018-09-27T09:29:05.595Z,50.39
2018-09-27T09:31:34.165Z,49.46
2018-09-27T09:34:04.722Z,48.97
2018-09-27T09:36:33.517Z,50.46
2018-09-27T09:39:05.201Z,47.98
2018-09-27T09:41:34.103Z,49.61
2018-09-27T09:44:03.892Z,49.58
2018-09-27T09:46:32.685Z,48.59
2018-09-27T09:49:02.647Z,48.49
2018-09-27T09:51:31.193Z,46.39
2018-09-27T09:53:59.715Z,45.54
2018-09-27T09:56:28.212Z,44.58
2018-09-27T09:58:58.123Z,43.81
2018-09-27T10:01:26.641Z,41.92
2018-09-27T10:03:55.151Z,42.28
2018-09-27T10:06:23.681Z,41.70
2018-09-27T10:08:52.206Z,39.92
2018-09-27T10:11:20.998Z,37.82
2018-09-27T10:13:49.500Z,37.34
2018-09-27T10:16:17.995Z,40.80
2018-09-27T10:18:46.597Z,41.49
2018-09-27T10:21:15.112Z,39.47
2018-09-27T10:23:43.629Z,38.49
2018-09-27T10:26:12.389Z,38.54
2018-09-27T10:28:41.124Z,40.13
2018-09-27T10:31:09.965Z,39.25
2018-09-27T10:33:38.817Z,39.63
2018-09-27T10:36:07.643Z,41.37
2018-09-27T10:38:36.354Z,38.11
2018-09-27T10:41:05.117Z,37.79
2018-09-27T10:43:33.851Z,38.27
2018-09-27T10:46:03.394Z,37.05
2018-09-27T10:48:32.202Z,37.53
2018-09-27T10:51:00.822Z,38.47
2018-09-27T10:53:30.495Z,38.97
2018-09-27T10:55:58.997Z,41.31
2018-09-27T10:58:27.510Z,38.37
2018-09-27T11:00:56.045Z,36.70
2018-09-27T11:03:24.611Z,36.16
2018-09-27T11:05:53.149Z,38.99
2018-09-27T11:08:21.649Z,36.30
2018-09-27T11:10:50.148Z,34.99
2018-09-27T11:13:18.658Z,37.09
2018-09-27T11:15:47.425Z,37.54
2018-09-27T11:18:15.935Z,37.23
2018-09-27T11:20:44.463Z,35.33
2018-09-27T11:23:13.000Z,34.19
2018-09-27T11:25:41.958Z,32.47
2018-09-27T11:28:10.527Z,33.13
2018-09-27T11:30:40.804Z,34.06
2018-09-27T11:33:09.512Z,33.89
2018-09-27T11:35:37.992Z,33.61
2018-09-27T11:38:06.577Z,34.26
2018-09-27T11:40:35.150Z,32.60
2018-09-27T11:43:05.118Z,34.37
2018-09-27T11:45:33.640Z,32.65
2018-09-27T11:48:04.082Z,32.11
2018-09-27T11:50:32.641Z,32.69
2018-09-27T11:53:02.797Z,33.50
2018-09-27T11:55:31.360Z,32.18
2018-09-27T11:57:59.941Z,32.71
2018-09-27T12:00:28.542Z,30.78
2018-09-27T12:02:57.057Z,32.02
2018-09-27T12:05:25.711Z,32.54
2018-09-27T12:07:54.212Z,31.44
2018-09-27T12:10:23.645Z,29.60
2018-09-27T12:12:52.159Z,30.44
2018-09-27T12:15:20.684Z,30.96
2018-09-27T12:17:49.202Z,29.53
2018-09-27T12:20:17.727Z,28.61
2018-09-27T12:22:46.242Z,28.87
2018-09-27T12:25:15.004Z,26.41
2018-09-27T12:27:43.547Z,28.23
2018-09-27T12:30:12.038Z,27.71
2018-09-27T12:32:40.558Z,25.80
2018-09-27T12:35:09.113Z,25.79
2018-09-27T12:37:38.026Z,26.59
2018-09-27T12:40:06.525Z,26.33
2018-09-27T12:42:35.213Z,25.50
2018-09-27T12:45:04.616Z,24.17
2018-09-27T12:47:33.180Z,24.78
2018-09-27T12:50:02.726Z,24.96
2018-09-27T12:52:31.376Z,28.14
2018-09-27T12:54:59.856Z,27.06
2018-09-27T12:57:28.512Z,26.39
2018-09-27T12:59:57.065Z,27.32
2018-09-27T13:02:25.986Z,26.35
2018-09-27T13:04:54.529Z,27.52
2018-09-27T13:07:23.061Z,25.31
2018-09-27T13:09:51.652Z,27.35
2018-09-27T13:12:20.194Z,26.68
2018-09-27T13:14:48.782Z,26.85
2018-09-27T13:17:17.355Z,24.86
2018-09-27T13:19:45.882Z,25.04
2018-09-27T13:22:14.478Z,25.44
2018-09-27T13:24:43.003Z,27.53
2018-09-27T13:27:11.565Z,24.15
2018-09-27T13:29:40.138Z,26.90
2018-09-27T13:32:08.735Z,25.79
2018-09-27T13:34:37.250Z,25.92
2018-09-27T13:37:06.238Z,24.09
2018-09-27T13:39:35.103Z,24.25
2018-09-27T13:42:06.859Z,25.84
2018-09-27T13:44:35.369Z,24.62
2018-09-27T13:47:05.185Z,28.46
2018-09-27T13:49:33.684Z,24.72
2018-09-27T13:52:03.917Z,23.66
2018-09-27T13:54:32.469Z,24.82
2018-09-27T13:57:03.248Z,24.76
2018-09-27T13:59:31.857Z,24.14
2018-09-27T14:02:00.433Z,24.81
2018-09-27T14:04:29.022Z,24.04
2018-09-27T14:06:57.561Z,25.27
2018-09-27T14:09:26.346Z,23.85
2018-09-27T14:11:54.863Z,25.49
2018-09-27T14:14:23.389Z,25.82
2018-09-27T14:16:51.958Z,25.83
2018-09-27T14:19:20.541Z,24.37
2018-09-27T14:21:49.084Z,26.64
2018-09-27T14:24:17.617Z,27.03
2018-09-27T14:26:46.233Z,25.54
2018-09-27T14:29:14.794Z,23.77
2018-09-27T14:31:43.304Z,23.62
2018-09-27T14:34:11.841Z,26.46
2018-09-27T14:36:40.513Z,27.89
2018-09-27T14:39:10.228Z,27.57
2018-09-27T14:41:39.518Z,25.38
2018-09-27T14:44:08.372Z,27.38
2018-09-27T14:46:37.102Z,27.24
2018-09-27T14:49:06.054Z,27.16
2018-09-27T14:51:34.630Z,27.62
2018-09-27T14:54:05.986Z,28.31
2018-09-27T14:56:34.547Z,23.95
2018-09-27T14:59:04.884Z,24.25
2018-09-27T15:01:33.635Z,24.71
2018-09-27T15:04:03.764Z,24.07
2018-09-27T15:06:32.351Z,25.22
2018-09-27T15:09:00.925Z,28.11
2018-09-27T15:11:29.515Z,28.45
2018-09-27T15:13:58.513Z,25.85
2018-09-27T15:16:27.776Z,26.73
2018-09-27T15:18:56.265Z,27.47
2018-09-27T15:21:24.802Z,27.30
2018-09-27T15:23:53.350Z,27.93
2018-09-27T15:26:21.841Z,29.29
2018-09-27T15:28:50.569Z,30.24
2018-09-27T15:31:19.486Z,31.70
2018-09-27T15:33:48.068Z,32.20
2018-09-27T15:36:16.626Z,33.31
2018-09-27T15:38:45.297Z,34.05
2018-09-27T15:41:13.832Z,36.45
2018-09-27T15:43:42.371Z,34.19
2018-09-27T15:46:10.907Z,34.91
2018-09-27T15:48:39.959Z,35.17
2018-09-27T15:51:08.892Z,35.89
2018-09-27T15:53:37.741Z,35.78
2018-09-27T15:56:06.332Z,35.75
2018-09-27T15:58:35.140Z,36.68
2018-09-27T16:01:07.069Z,37.69
2018-09-27T16:03:35.636Z,37.49
2018-09-27T16:06:05.667Z,36.40
2018-09-27T16:08:34.201Z,34.86
2018-09-27T16:11:03.768Z,32.83
2018-09-27T16:13:32.328Z,33.50
2018-09-27T16:16:00.835Z,33.07
2018-09-27T16:18:29.385Z,34.62
2018-09-27T16:20:58.308Z,32.26
2018-09-27T16:23:26.833Z,32.76
2018-09-27T16:25:55.347Z,32.82
2018-09-27T16:28:23.975Z,30.38
2018-09-27T16:30:52.523Z,30.20
2018-09-27T16:33:21.468Z,31.27
2018-09-27T16:35:49.989Z,32.50
2018-09-27T16:38:18.481Z,33.34
2018-09-27T16:40:47.076Z,33.38
2018-09-27T16:43:15.777Z,35.87
2018-09-27T16:45:44.341Z,36.70
2018-09-27T16:48:12.879Z,38.53
2018-09-27T16:50:43.554Z,37.69
2018-09-27T16:53:12.114Z,40.96
2018-09-27T16:55:40.725Z,41.71
2018-09-27T16:58:09.686Z,42.33
2018-09-27T17:00:38.318Z,43.80
2018-09-27T17:03:06.900Z,44.74
2018-09-27T17:05:35.685Z,44.88
2018-09-27T17:08:05.418Z,45.47
2018-09-27T17:10:34.129Z,47.21
2018-09-27T17:13:04.425Z,47.55
2018-09-27T17:15:32.944Z,48.90
2018-09-27T17:18:03.178Z,48.48
2018-09-27T17:20:31.908Z,49.19
2018-09-27T17:23:00.462Z,51.34
2018-09-27T17:25:29.016Z,51.43
2018-09-27T17:27:57.587Z,52.05
2018-09-27T17:30:26.275Z,51.33
2018-09-27T17:32:54.931Z,52.65
2018-09-27T17:35:23.469Z,52.37
2018-09-27T17:37:52.048Z,54.44
2018-09-27T17:40:20.677Z,54.56
2018-09-27T17:42:49.170Z,55.20
2018-09-27T17:45:17.791Z,55.44
2018-09-27T17:47:46.382Z,56.05
2018-09-27T17:50:15.087Z,56.04
2018-09-27T17:52:44.382Z,57.06
2018-09-27T17:55:12.895Z,57.63
2018-09-27T17:57:41.466Z,57.50
2018-09-27T18:00:10.073Z,59.26
2018-09-27T18:02:38.621Z,59.82
2018-09-27T18:05:18.815Z,60.36
2018-09-27T18:07:35.782Z,60.84
2018-09-27T18:10:05.217Z,61.72
2018-09-27T18:12:33.796Z,61.76
2018-09-27T18:15:04.109Z,62.11
2018-09-27T18:17:32.784Z,61.66
2018-09-27T18:20:03.859Z,63.21
2018-09-27T18:22:32.477Z,63.85
2018-09-27T18:25:00.946Z,63.52
2018-09-27T18:27:29.665Z,63.65
2018-09-27T18:29:58.229Z,63.72
2018-09-27T18:32:26.819Z,64.01
2018-09-27T18:34:55.361Z,64.54
2018-09-27T18:37:23.982Z,65.67
2018-09-27T18:39:52.597Z,66.39
2018-09-27T18:42:21.239Z,66.82
2018-09-27T18:44:49.815Z,67.57
2018-09-27T18:47:18.381Z,66.86
2018-09-27T18:49:46.998Z,66.82
2018-09-27T18:52:15.735Z,66.65
2018-09-27T18:54:44.325Z,67.16
2018-09-27T18:57:12.891Z,65.58
2018-09-27T18:59:41.476Z,65.34
2018-09-27T19:02:10.038Z,67.32
2018-09-27T19:04:38.645Z,67.11
2018-09-27T19:07:07.570Z,67.79
2018-09-27T19:09:36.147Z,69.60
2018-09-27T19:12:06.152Z,69.47
2018-09-27T19:14:35.535Z,70.66
2018-09-27T19:17:07.577Z,69.75
2018-09-27T19:19:36.273Z,70.00
2018-09-27T19:22:06.279Z,70.58
2018-09-27T19:24:34.859Z,71.01
2018-09-27T19:27:05.728Z,71.86
2018-09-27T19:29:34.383Z,71.04
2018-09-27T19:32:05.214Z,71.20
2018-09-27T19:34:34.263Z,71.53
2018-09-27T19:37:04.569Z,71.47
2018-09-27T19:39:33.364Z,72.56
2018-09-27T19:42:04.284Z,73.27
2018-09-27T19:44:32.876Z,72.79
2018-09-27T19:47:02.874Z,72.09
2018-09-27T19:49:31.745Z,71.92
2018-09-27T19:52:00.422Z,71.33
2018-09-27T19:54:29.204Z,70.06
2018-09-27T19:56:57.844Z,67.70
2018-09-27T19:59:26.400Z,64.87
2018-09-27T20:01:55.369Z,65.18
2018-09-27T20:04:24.229Z,63.28
2018-09-27T20:06:53.196Z,63.43
2018-09-27T20:09:21.804Z,63.40
2018-09-27T20:11:51.035Z,60.86
2018-09-27T20:14:19.903Z,60.59
2018-09-27T20:16:53.647Z,60.46
2018-09-27T20:19:27.613Z,59.78
2018-09-27T20:21:59.458Z,59.13
2018-09-27T20:24:28.165Z,60.35
2018-09-27T20:27:04.145Z,60.56
2018-09-27T20:29:36.154Z,61.09
2018-09-27T20:32:06.030Z,60.68
2018-09-27T20:34:36.265Z,61.02
2018-09-27T20:37:05.305Z,62.70
2018-09-27T20:39:35.451Z,62.89
2018-09-27T20:42:13.687Z,62.77
2018-09-27T20:44:42.249Z,64.67
2018-09-27T20:47:11.482Z,65.02
2018-09-27T20:49:43.030Z,66.97
2018-09-27T20:52:11.722Z,67.36
2018-09-27T20:54:40.240Z,68.39
2018-09-27T20:57:09.143Z,69.19
2018-09-27T20:59:38.882Z,70.03
2018-09-27T21:02:10.884Z,70.34
2018-09-27T21:04:39.807Z,72.72
2018-09-27T21:07:08.345Z,72.89
2018-09-27T21:09:36.882Z,74.31
2018-09-27T21:12:05.453Z,74.92
2018-09-27T21:14:33.969Z,75.67
2018-09-27T21:17:07.298Z,76.71
2018-09-27T21:19:35.882Z,77.07
2018-09-27T21:22:09.618Z,77.03
2018-09-27T21:24:38.158Z,77.70
2018-09-27T21:27:06.877Z,78.33
2018-09-27T21:29:40.894Z,79.92
2018-09-27T21:32:09.521Z,79.42
2018-09-27T21:34:38.720Z,78.53
2018-09-27T21:37:07.248Z,79.07
2018-09-27T21:39:35.798Z,78.74
2018-09-27T21:42:05.211Z,80.17
2018-09-27T21:44:34.047Z,80.10
2018-09-27T21:47:09.784Z,80.56
2018-09-27T21:49:38.312Z,79.68
2018-09-27T21:52:06.891Z,80.15
2018-09-27T21:54:35.534Z,81.31
2018-09-27T21:57:07.054Z,81.13
2018-09-27T21:59:35.554Z,81.35
2018-09-27T22:02:05.647Z,81.28
2018-09-27T22:04:38.261Z,81.29
2018-09-27T22:07:07.053Z,81.77
2018-09-27T22:09:39.469Z,82.64
2018-09-27T22:12:08.068Z,83.39
2018-09-27T22:14:36.596Z,82.69
2018-09-27T22:17:05.174Z,81.65
2018-09-27T22:19:33.859Z,81.66
2018-09-27T22:22:04.135Z,81.31
2018-09-27T22:24:32.933Z,82.03
2018-09-27T22:27:02.874Z,81.51
2018-09-27T22:29:31.374Z,82.68
2018-09-27T22:31:59.915Z,80.82
2018-09-27T22:34:28.448Z,82.07
2018-09-27T22:36:57.446Z,81.52
2018-09-27T22:39:25.946Z,80.73
2018-09-27T22:41:54.587Z,81.49
2018-09-27T22:44:23.083Z,81.55
2018-09-27T22:46:51.668Z,82.76
2018-09-27T22:49:20.207Z,82.84
2018-09-27T22:51:48.703Z,82.11
2018-09-27T22:54:17.225Z,82.32
2018-09-27T22:56:45.743Z,82.07
2018-09-27T22:59:14.268Z,81.57
2018-09-27T23:01:42.902Z,80.12
2018-09-27T23:04:11.461Z,80.85
2018-09-27T23:06:40.302Z,80.61
2018-09-27T23:09:08.942Z,80.11
2018-09-27T23:11:37.481Z,80.74
2018-09-27T23:14:06.393Z,79.54
2018-09-27T23:16:34.940Z,79.65
2018-09-27T23:19:05.280Z,77.59
2018-09-27T23:21:33.876Z,76.75
2018-09-27T23:24:04.160Z,77.58
2018-09-27T23:26:32.680Z,76.30
2018-09-27T23:29:02.768Z,77.19
2018-09-27T23:31:31.330Z,77.73
2018-09-27T23:34:00.094Z,77.22
2018-09-27T23:36:28.683Z,77.83
2018-09-27T23:38:59.344Z,76.84
2018-09-27T23:41:27.861Z,75.96
2018-09-27T23:43:56.370Z,76.05
2018-09-27T23:46:24.941Z,75.74
2018-09-27T23:48:53.463Z,76.29
2018-09-27T23:51:21.989Z,76.96
2018-09-27T23:53:50.523Z,77.07
2018-09-27T23:56:19.070Z,77.69
2018-09-27T23:58:47.560Z,78.23
